createdAt,value
2017-08-16T00:01:43.239Z,96.55
2017-08-16T00:04:11.084Z,96.60
2017-08-16T00:06:38.916Z,96.59
2017-08-16T00:09:06.817Z,96.58
2017-08-16T00:11:34.653Z,96.57
2017-08-16T00:14:02.512Z,96.55
2017-08-16T00:16:30.249Z,96.57
2017-08-16T00:18:58.131Z,96.54
2017-08-16T00:21:25.958Z,96.55
2017-08-16T00:23:53.728Z,96.60
2017-08-16T00:26:21.538Z,96.68
2017-08-16T00:28:49.420Z,96.73
2017-08-16T00:31:17.297Z,96.75
2017-08-16T00:33:45.170Z,96.75
2017-08-16T00:36:12.998Z,96.76
2017-08-16T00:38:40.893Z,96.75
2017-08-16T00:41:08.768Z,96.86
2017-08-16T00:43:37.670Z,97.04
2017-08-16T00:46:05.552Z,97.16
2017-08-16T00:51:05.536Z,97.12
2017-08-16T00:53:33.374Z,97.06
2017-08-16T00:56:01.245Z,96.99
2017-08-16T00:58:29.059Z,96.95
2017-08-16T01:00:56.993Z,96.95
2017-08-16T01:03:24.854Z,96.99
2017-08-16T01:05:52.724Z,96.98
2017-08-16T01:08:20.549Z,96.95
2017-08-16T01:10:48.392Z,96.91
2017-08-16T01:13:16.218Z,96.85
2017-08-16T01:15:44.048Z,96.80
2017-08-16T01:18:11.935Z,96.76
2017-08-16T01:20:39.702Z,96.69
2017-08-16T01:23:07.559Z,96.73
2017-08-16T01:25:35.381Z,96.76
2017-08-16T01:28:03.248Z,96.78
2017-08-16T01:30:31.143Z,96.77
2017-08-16T01:32:59.020Z,96.79
2017-08-16T01:35:26.844Z,96.77
2017-08-16T01:37:54.699Z,96.71
2017-08-16T01:40:22.516Z,96.67
2017-08-16T01:42:50.288Z,96.64
2017-08-16T01:45:18.165Z,96.62
2017-08-16T01:47:45.972Z,96.51
2017-08-16T01:50:13.841Z,96.49
2017-08-16T01:52:41.672Z,96.52
2017-08-16T01:55:09.530Z,96.56
2017-08-16T01:57:37.346Z,96.57
2017-08-16T02:00:05.226Z,96.57
2017-08-16T02:02:33.042Z,96.61
2017-08-16T02:05:00.927Z,96.48
2017-08-16T02:07:28.762Z,96.39
2017-08-16T02:09:56.669Z,96.38
2017-08-16T02:12:24.485Z,96.40
2017-08-16T02:14:52.620Z,96.47
2017-08-16T02:17:20.458Z,96.62
2017-08-16T02:19:48.332Z,96.75
2017-08-16T02:22:16.220Z,96.91
2017-08-16T02:24:44.073Z,97.18
2017-08-16T02:27:11.938Z,97.30
2017-08-16T02:29:39.785Z,97.37
2017-08-16T02:32:07.654Z,97.37
2017-08-16T02:34:35.473Z,97.35
2017-08-16T02:37:03.343Z,97.34
2017-08-16T02:39:31.159Z,97.32
2017-08-16T02:41:58.930Z,97.31
2017-08-16T02:44:26.760Z,97.27
2017-08-16T02:46:54.629Z,97.24
2017-08-16T02:49:22.483Z,97.21
2017-08-16T02:51:50.350Z,97.15
2017-08-16T02:54:18.229Z,97.12
2017-08-16T02:56:46.088Z,97.12
2017-08-16T02:59:13.966Z,97.11
2017-08-16T03:01:41.891Z,97.09
2017-08-16T03:04:09.820Z,97.04
2017-08-16T03:06:37.655Z,97.00
2017-08-16T03:09:05.611Z,96.99
2017-08-16T03:11:33.468Z,96.90
2017-08-16T03:14:01.382Z,96.84
2017-08-16T03:16:29.139Z,96.80
2017-08-16T03:18:57.029Z,96.67
2017-08-16T03:21:24.945Z,96.55
2017-08-16T03:23:52.823Z,96.50
2017-08-16T03:26:20.635Z,96.48
2017-08-16T03:28:48.481Z,96.44
2017-08-16T03:31:16.389Z,96.44
2017-08-16T03:33:44.274Z,96.41
2017-08-16T03:36:12.197Z,96.40
2017-08-16T03:38:40.068Z,96.42
2017-08-16T03:41:07.898Z,96.44
2017-08-16T03:43:35.772Z,96.45
2017-08-16T03:46:03.678Z,96.38
2017-08-16T03:48:31.566Z,96.39
2017-08-16T03:50:59.495Z,96.43
2017-08-16T03:53:27.392Z,96.45
2017-08-16T03:55:55.281Z,96.45
2017-08-16T03:58:23.141Z,96.41
2017-08-16T04:00:50.985Z,96.44
2017-08-16T04:03:18.920Z,96.44
2017-08-16T04:05:46.795Z,96.41
2017-08-16T04:08:14.733Z,96.41
2017-08-16T04:10:42.663Z,96.44
2017-08-16T04:13:10.456Z,96.46
2017-08-16T04:15:38.249Z,96.45
2017-08-16T04:18:06.197Z,96.44
2017-08-16T04:20:34.086Z,96.44
2017-08-16T04:23:02.026Z,96.48
2017-08-16T04:25:29.918Z,96.52
2017-08-16T04:27:57.844Z,96.53
2017-08-16T04:30:25.696Z,96.53
2017-08-16T04:32:53.615Z,96.48
2017-08-16T04:35:21.503Z,96.37
2017-08-16T04:37:49.448Z,96.40
2017-08-16T04:40:17.311Z,96.42
2017-08-16T04:42:45.149Z,96.43
2017-08-16T04:45:12.993Z,96.41
2017-08-16T04:47:40.772Z,96.38
2017-08-16T04:50:08.609Z,96.40
2017-08-16T04:52:36.368Z,96.39
2017-08-16T04:55:04.164Z,96.38
2017-08-16T04:57:31.944Z,96.37
2017-08-16T04:59:59.772Z,96.31
2017-08-16T05:02:27.559Z,96.31
2017-08-16T05:04:55.323Z,96.13
2017-08-16T05:07:23.103Z,96.26
2017-08-16T05:09:50.903Z,96.26
2017-08-16T05:12:18.706Z,96.26
2017-08-16T05:14:46.585Z,96.17
2017-08-16T05:17:14.376Z,96.18
2017-08-16T05:19:42.140Z,96.19
2017-08-16T05:22:09.976Z,96.06
2017-08-16T05:24:37.727Z,95.99
2017-08-16T05:27:05.558Z,96.01
2017-08-16T05:29:33.432Z,95.95
2017-08-16T05:32:01.231Z,95.77
2017-08-16T05:34:29.001Z,95.62
2017-08-16T05:36:56.841Z,95.48
2017-08-16T05:39:24.653Z,95.45
2017-08-16T05:41:52.499Z,95.61
2017-08-16T05:44:20.260Z,95.66
2017-08-16T05:46:48.087Z,95.52
2017-08-16T05:49:15.876Z,95.61
2017-08-16T05:51:43.669Z,95.58
2017-08-16T05:54:11.437Z,95.49
2017-08-16T05:56:39.216Z,95.35
2017-08-16T05:59:07.008Z,95.30
2017-08-16T06:01:34.747Z,95.15
2017-08-16T06:04:02.586Z,94.91
2017-08-16T06:06:30.296Z,94.91
2017-08-16T06:08:58.136Z,94.96
2017-08-16T06:11:25.870Z,94.77
2017-08-16T06:13:53.667Z,94.64
2017-08-16T06:16:21.416Z,94.58
2017-08-16T06:18:49.200Z,94.44
2017-08-16T06:21:16.989Z,94.40
2017-08-16T06:23:44.767Z,94.42
2017-08-16T06:26:12.511Z,94.43
2017-08-16T06:28:40.237Z,94.44
2017-08-16T06:31:08.027Z,94.49
2017-08-16T06:33:35.778Z,94.50
2017-08-16T06:36:03.553Z,94.62
2017-08-16T06:38:31.285Z,94.52
2017-08-16T06:40:59.089Z,94.30
2017-08-16T06:43:26.843Z,94.13
2017-08-16T06:45:54.712Z,94.01
2017-08-16T06:48:22.678Z,93.48
2017-08-16T06:50:50.541Z,93.18
2017-08-16T06:53:18.352Z,92.89
2017-08-16T06:55:46.237Z,93.06
2017-08-16T06:58:14.065Z,92.82
2017-08-16T07:00:42.022Z,92.92
2017-08-16T07:03:09.864Z,92.78
2017-08-16T07:05:37.708Z,92.31
2017-08-16T07:08:05.660Z,92.22
2017-08-16T07:10:33.531Z,91.90
2017-08-16T07:13:01.441Z,91.54
2017-08-16T07:15:29.371Z,90.97
2017-08-16T07:17:57.174Z,90.11
2017-08-16T07:20:24.997Z,89.81
2017-08-16T07:22:52.806Z,88.51
2017-08-16T07:25:20.604Z,86.78
2017-08-16T07:27:48.406Z,84.16
2017-08-16T07:30:16.224Z,84.65
2017-08-16T07:32:44.007Z,85.70
2017-08-16T07:35:11.790Z,85.68
2017-08-16T07:37:39.592Z,85.52
2017-08-16T07:40:07.322Z,84.36
2017-08-16T07:42:35.212Z,84.46
2017-08-16T07:45:03.036Z,84.30
2017-08-16T07:47:30.776Z,84.28
2017-08-16T07:49:58.651Z,82.97
2017-08-16T07:52:26.494Z,81.43
2017-08-16T07:54:54.418Z,80.64
2017-08-16T07:57:22.270Z,80.52
2017-08-16T07:59:50.168Z,80.95
2017-08-16T08:02:17.927Z,80.30
2017-08-16T08:04:45.820Z,79.61
2017-08-16T08:07:13.674Z,79.27
2017-08-16T08:09:41.623Z,79.60
2017-08-16T08:12:09.484Z,80.97
2017-08-16T08:14:37.313Z,81.09
2017-08-16T08:17:05.146Z,81.69
2017-08-16T08:19:32.899Z,82.27
2017-08-16T08:22:00.685Z,82.04
2017-08-16T08:24:28.477Z,81.39
2017-08-16T08:26:56.417Z,80.55
2017-08-16T08:29:24.184Z,78.89
2017-08-16T08:31:51.973Z,77.43
2017-08-16T08:34:19.830Z,77.49
2017-08-16T08:36:47.628Z,77.41
2017-08-16T08:39:15.463Z,78.37
2017-08-16T08:41:43.371Z,78.69
2017-08-16T08:44:11.232Z,77.60
2017-08-16T08:46:39.197Z,74.97
2017-08-16T08:49:07.043Z,74.17
2017-08-16T08:51:34.890Z,74.60
2017-08-16T08:54:02.806Z,74.70
2017-08-16T08:56:30.684Z,75.73
2017-08-16T08:58:58.587Z,76.12
2017-08-16T09:01:26.426Z,73.79
2017-08-16T09:03:54.307Z,74.38
2017-08-16T09:06:22.184Z,74.14
2017-08-16T09:08:50.109Z,74.17
2017-08-16T09:11:17.847Z,74.19
2017-08-16T09:13:45.777Z,75.09
2017-08-16T09:16:13.633Z,74.99
2017-08-16T09:18:41.497Z,76.31
2017-08-16T09:21:09.302Z,75.55
2017-08-16T09:23:37.158Z,75.44
2017-08-16T09:26:05.103Z,75.76
2017-08-16T09:28:32.963Z,76.26
2017-08-16T09:31:00.841Z,75.78
2017-08-16T09:33:28.684Z,75.34
2017-08-16T09:35:56.566Z,73.67
2017-08-16T09:38:24.395Z,73.03
2017-08-16T09:40:52.322Z,73.63
2017-08-16T09:43:20.202Z,72.00
2017-08-16T09:45:48.088Z,72.21
2017-08-16T09:48:15.941Z,72.58
2017-08-16T09:50:43.788Z,73.17
2017-08-16T09:53:11.681Z,74.06
2017-08-16T09:55:39.515Z,74.14
2017-08-16T09:58:07.416Z,74.16
2017-08-16T10:00:35.245Z,72.29
2017-08-16T10:03:03.150Z,73.44
2017-08-16T10:05:30.998Z,72.77
2017-08-16T10:07:58.864Z,72.86
2017-08-16T10:10:26.778Z,74.01
2017-08-16T10:12:54.663Z,73.28
2017-08-16T10:15:22.505Z,74.32
2017-08-16T10:17:50.308Z,73.62
2017-08-16T10:20:18.180Z,73.51
2017-08-16T10:22:46.008Z,72.93
2017-08-16T10:25:13.928Z,72.37
2017-08-16T10:27:41.764Z,71.38
2017-08-16T10:30:09.671Z,70.09
2017-08-16T10:32:37.402Z,69.57
2017-08-16T10:35:05.220Z,70.77
2017-08-16T10:37:32.949Z,70.09
2017-08-16T10:40:00.766Z,71.48
2017-08-16T10:42:28.650Z,71.15
2017-08-16T10:44:56.470Z,71.18
2017-08-16T10:47:24.326Z,71.49
2017-08-16T10:49:52.241Z,72.06
2017-08-16T10:52:20.207Z,71.63
2017-08-16T10:54:48.091Z,70.88
2017-08-16T10:57:15.939Z,71.02
2017-08-16T10:59:43.777Z,71.16
2017-08-16T11:02:11.650Z,72.43
2017-08-16T11:04:39.486Z,71.26
2017-08-16T11:07:07.370Z,70.95
2017-08-16T11:09:35.233Z,71.92
2017-08-16T11:12:03.120Z,70.47
2017-08-16T11:14:30.955Z,70.73
2017-08-16T11:16:58.895Z,70.59
2017-08-16T11:19:26.750Z,69.56
2017-08-16T11:21:54.661Z,70.27
2017-08-16T11:24:22.533Z,69.21
2017-08-16T11:26:50.379Z,70.13
2017-08-16T11:29:18.165Z,68.90
2017-08-16T11:31:45.881Z,68.98
2017-08-16T11:34:13.659Z,68.36
2017-08-16T11:36:41.378Z,67.36
2017-08-16T11:39:09.163Z,68.29
2017-08-16T11:41:36.911Z,68.54
2017-08-16T11:44:04.688Z,69.14
2017-08-16T11:46:32.404Z,67.38
2017-08-16T11:49:00.167Z,68.05
2017-08-16T11:51:27.888Z,62.82
2017-08-16T11:53:55.641Z,63.03
2017-08-16T11:56:23.386Z,63.38
2017-08-16T11:58:51.135Z,60.96
2017-08-16T12:01:18.936Z,63.69
2017-08-16T12:03:46.655Z,63.63
2017-08-16T12:06:14.466Z,65.80
2017-08-16T12:08:42.239Z,64.28
2017-08-16T12:11:10.086Z,62.17
2017-08-16T12:13:37.811Z,62.45
2017-08-16T12:16:05.581Z,63.89
2017-08-16T12:18:33.309Z,64.95
2017-08-16T12:21:01.068Z,62.99
2017-08-16T12:23:28.809Z,63.88
2017-08-16T12:25:56.578Z,63.35
2017-08-16T12:28:24.337Z,61.63
2017-08-16T12:30:52.094Z,63.29
2017-08-16T12:33:20.462Z,62.98
2017-08-16T12:35:48.322Z,64.48
2017-08-16T12:38:16.210Z,63.42
2017-08-16T12:40:44.031Z,64.67
2017-08-16T12:43:11.893Z,63.61
2017-08-16T12:45:39.720Z,63.34
2017-08-16T12:48:07.578Z,63.48
2017-08-16T12:50:35.323Z,61.37
2017-08-16T12:53:03.107Z,63.25
2017-08-16T12:55:30.886Z,62.25
2017-08-16T12:57:58.735Z,62.64
2017-08-16T13:00:26.552Z,61.32
2017-08-16T13:02:54.393Z,61.86
2017-08-16T13:05:22.328Z,59.89
2017-08-16T13:07:50.220Z,59.50
2017-08-16T13:10:18.164Z,59.59
2017-08-16T13:12:45.920Z,58.57
2017-08-16T13:15:13.787Z,58.38
2017-08-16T13:17:41.554Z,59.33
2017-08-16T13:20:09.445Z,60.49
2017-08-16T13:22:37.287Z,61.03
2017-08-16T13:25:05.186Z,60.51
2017-08-16T13:27:33.010Z,59.23
2017-08-16T13:30:00.876Z,57.64
2017-08-16T13:32:28.714Z,58.57
2017-08-16T13:34:56.597Z,58.60
2017-08-16T13:37:24.426Z,59.47
2017-08-16T13:39:52.248Z,60.50
2017-08-16T13:42:20.057Z,60.15
2017-08-16T13:44:47.913Z,62.31
2017-08-16T13:47:15.817Z,59.32
2017-08-16T13:49:43.649Z,58.93
2017-08-16T13:52:11.550Z,62.00
2017-08-16T13:54:39.369Z,62.85
2017-08-16T13:57:07.137Z,63.27
2017-08-16T13:59:35.011Z,63.07
2017-08-16T14:02:02.893Z,63.73
2017-08-16T14:04:30.717Z,62.04
2017-08-16T14:06:58.578Z,63.22
2017-08-16T14:09:26.437Z,59.99
2017-08-16T14:11:54.235Z,59.63
2017-08-16T14:14:22.080Z,57.22
2017-08-16T14:16:49.912Z,56.68
2017-08-16T14:19:17.801Z,56.69
2017-08-16T14:21:45.631Z,60.74
2017-08-16T14:24:13.506Z,57.88
2017-08-16T14:26:41.346Z,55.29
2017-08-16T14:29:09.206Z,57.15
2017-08-16T14:31:37.048Z,56.09
2017-08-16T14:34:04.936Z,56.80
2017-08-16T14:36:32.745Z,55.78
2017-08-16T14:39:00.633Z,54.92
2017-08-16T14:41:28.371Z,53.98
2017-08-16T14:43:56.257Z,52.96
2017-08-16T14:46:24.007Z,54.38
2017-08-16T14:48:51.894Z,52.94
2017-08-16T14:51:19.766Z,55.17
2017-08-16T14:53:47.591Z,50.24
2017-08-16T14:56:15.464Z,50.61
2017-08-16T14:58:43.288Z,51.10
2017-08-16T15:01:11.160Z,54.54
2017-08-16T15:03:39.004Z,56.76
2017-08-16T15:06:06.887Z,54.75
2017-08-16T15:08:34.697Z,55.13
2017-08-16T15:11:02.645Z,54.74
2017-08-16T15:13:30.386Z,55.34
2017-08-16T15:15:58.180Z,52.87
2017-08-16T15:18:25.930Z,53.93
2017-08-16T15:20:53.760Z,54.58
2017-08-16T15:23:21.650Z,54.46
2017-08-16T15:25:49.461Z,53.63
2017-08-16T15:28:17.327Z,54.42
2017-08-16T15:30:45.137Z,55.04
2017-08-16T15:33:13.022Z,55.91
2017-08-16T15:35:40.849Z,56.37
2017-08-16T15:38:08.740Z,56.50
2017-08-16T15:40:36.561Z,56.29
2017-08-16T15:43:04.444Z,58.01
2017-08-16T15:45:32.267Z,57.74
2017-08-16T15:48:00.153Z,58.42
2017-08-16T15:50:28.005Z,58.21
2017-08-16T15:52:55.815Z,55.85
2017-08-16T15:55:23.741Z,55.15
2017-08-16T15:57:51.576Z,54.81
2017-08-16T16:00:19.354Z,55.09
2017-08-16T16:02:47.189Z,56.36
2017-08-16T16:05:14.978Z,55.32
2017-08-16T16:07:42.716Z,55.77
2017-08-16T16:10:10.630Z,56.83
2017-08-16T16:12:38.478Z,57.77
2017-08-16T16:15:06.524Z,58.88
2017-08-16T16:17:34.361Z,59.90
2017-08-16T16:20:02.249Z,63.69
2017-08-16T16:22:30.084Z,66.14
2017-08-16T16:24:57.950Z,64.41
2017-08-16T16:27:25.803Z,65.86
2017-08-16T16:29:53.640Z,67.91
2017-08-16T16:32:21.477Z,66.13
2017-08-16T16:34:49.228Z,64.20
2017-08-16T16:37:17.103Z,68.04
2017-08-16T16:39:44.947Z,67.01
2017-08-16T16:42:12.842Z,68.49
2017-08-16T16:44:40.695Z,66.49
2017-08-16T16:47:08.556Z,68.33
2017-08-16T16:49:36.417Z,68.30
2017-08-16T16:52:04.244Z,69.79
2017-08-16T16:54:32.145Z,73.15
2017-08-16T16:56:59.968Z,71.05
2017-08-16T16:59:27.836Z,69.34
2017-08-16T17:01:55.672Z,69.39
2017-08-16T17:04:23.441Z,68.80
2017-08-16T17:06:51.171Z,72.36
2017-08-16T17:09:18.965Z,74.47
2017-08-16T17:11:46.708Z,73.92
2017-08-16T17:14:14.493Z,75.34
2017-08-16T17:16:42.209Z,76.80
2017-08-16T17:19:10.006Z,76.68
2017-08-16T17:21:37.771Z,77.10
2017-08-16T17:24:05.600Z,77.92
2017-08-16T17:26:33.404Z,79.33
2017-08-16T17:29:01.146Z,79.42
2017-08-16T17:31:28.925Z,80.21
2017-08-16T17:33:56.777Z,81.90
2017-08-16T17:36:24.593Z,82.97
2017-08-16T17:38:52.466Z,83.38
2017-08-16T17:41:20.353Z,82.96
2017-08-16T17:43:48.209Z,83.51
2017-08-16T17:46:16.105Z,83.80
2017-08-16T17:48:43.932Z,83.20
2017-08-16T17:51:11.748Z,83.82
2017-08-16T17:53:39.485Z,83.13
2017-08-16T17:56:07.265Z,83.61
2017-08-16T17:58:35.094Z,83.90
2017-08-16T18:01:02.987Z,82.80
2017-08-16T18:03:30.885Z,83.48
2017-08-16T18:05:58.748Z,84.27
2017-08-16T18:08:26.653Z,84.60
2017-08-16T18:10:54.537Z,85.18
2017-08-16T18:13:22.419Z,85.78
2017-08-16T18:15:50.249Z,86.05
2017-08-16T18:18:18.072Z,86.17
2017-08-16T18:20:45.800Z,86.65
2017-08-16T18:23:13.617Z,87.02
2017-08-16T18:25:41.381Z,87.32
2017-08-16T18:28:09.178Z,87.68
2017-08-16T18:30:36.941Z,87.55
2017-08-16T18:33:04.713Z,87.24
2017-08-16T18:35:32.466Z,87.92
2017-08-16T18:38:00.300Z,88.29
2017-08-16T18:40:28.059Z,88.37
2017-08-16T18:42:58.991Z,88.58
2017-08-16T18:45:28.661Z,88.81
2017-08-16T18:47:58.129Z,88.92
2017-08-16T18:50:27.390Z,89.03
2017-08-16T18:52:57.118Z,89.05
2017-08-16T18:55:26.298Z,89.20
2017-08-16T18:57:55.350Z,89.18
2017-08-16T19:00:24.595Z,89.11
2017-08-16T19:02:55.513Z,89.11
2017-08-16T19:05:26.257Z,89.26
2017-08-16T19:07:55.243Z,89.43
2017-08-16T19:10:25.618Z,89.78
2017-08-16T19:12:55.229Z,90.05
2017-08-16T19:15:24.616Z,90.25
2017-08-16T19:17:54.717Z,90.21
2017-08-16T19:20:23.145Z,90.21
2017-08-16T19:22:52.778Z,90.33
2017-08-16T19:25:21.397Z,90.39
2017-08-16T19:27:51.001Z,90.43
2017-08-16T19:30:21.617Z,90.07
2017-08-16T19:32:52.029Z,90.22
2017-08-16T19:35:22.466Z,90.30
2017-08-16T19:37:51.216Z,90.39
2017-08-16T19:40:20.568Z,90.27
2017-08-16T19:42:50.927Z,90.40
2017-08-16T19:45:19.742Z,90.31
2017-08-16T19:47:50.223Z,90.23
2017-08-16T19:50:20.411Z,90.27
2017-08-16T19:52:50.706Z,90.56
2017-08-16T19:55:19.042Z,90.75
2017-08-16T19:57:50.927Z,90.62
2017-08-16T20:00:20.970Z,90.84
2017-08-16T20:02:52.077Z,91.26
2017-08-16T20:05:20.954Z,91.13
2017-08-16T20:07:50.421Z,91.16
2017-08-16T20:10:18.834Z,91.08
2017-08-16T20:12:47.556Z,91.46
2017-08-16T20:15:18.520Z,91.54
2017-08-16T20:17:50.186Z,91.09
2017-08-16T20:20:19.224Z,91.01
2017-08-16T20:22:48.565Z,91.31
2017-08-16T20:25:17.621Z,91.51
2017-08-16T20:27:48.202Z,91.32
2017-08-16T20:30:17.886Z,91.24
2017-08-16T20:32:47.284Z,91.20
2017-08-16T20:35:20.225Z,91.21
2017-08-16T20:37:50.176Z,91.32
2017-08-16T20:40:18.029Z,91.44
2017-08-16T20:42:46.008Z,91.48
2017-08-16T20:45:17.361Z,91.50
2017-08-16T20:47:48.561Z,91.35
2017-08-16T20:50:16.339Z,91.50
2017-08-16T20:52:44.639Z,91.35
2017-08-16T20:55:18.921Z,91.15
2017-08-16T20:57:47.265Z,91.18
2017-08-16T21:00:15.665Z,91.33
2017-08-16T21:02:44.868Z,91.35
2017-08-16T21:05:15.042Z,91.48
2017-08-16T21:07:45.023Z,91.54
2017-08-16T21:10:15.423Z,91.56
2017-08-16T21:12:43.490Z,91.60
2017-08-16T21:15:16.114Z,91.50
2017-08-16T21:17:45.694Z,91.42
2017-08-16T21:20:13.649Z,91.66
2017-08-16T21:22:43.315Z,92.00
2017-08-16T21:25:16.026Z,92.21
2017-08-16T21:27:45.129Z,92.32
2017-08-16T21:30:15.893Z,92.06
2017-08-16T21:32:45.383Z,92.00
2017-08-16T21:35:16.041Z,92.09
2017-08-16T21:37:44.022Z,91.91
2017-08-16T21:40:12.109Z,91.74
2017-08-16T21:42:42.246Z,91.64
2017-08-16T21:45:13.188Z,91.51
2017-08-16T21:47:42.763Z,91.52
2017-08-16T21:50:11.333Z,91.63
2017-08-16T21:52:41.576Z,91.72
2017-08-16T21:55:13.338Z,91.87
2017-08-16T21:57:43.056Z,92.19
2017-08-16T22:00:14.163Z,91.77
2017-08-16T22:02:43.470Z,91.81
2017-08-16T22:05:13.556Z,91.89
2017-08-16T22:07:42.328Z,91.55
2017-08-16T22:10:13.637Z,91.41
2017-08-16T22:12:43.158Z,91.61
2017-08-16T22:15:11.293Z,91.78
2017-08-16T22:17:39.845Z,91.98
2017-08-16T22:20:08.085Z,92.01
2017-08-16T22:22:38.084Z,92.46
2017-08-16T22:25:05.939Z,92.47
2017-08-16T22:27:34.368Z,92.37
2017-08-16T22:30:03.725Z,91.99
2017-08-16T22:32:32.367Z,91.62
2017-08-16T22:35:05.429Z,91.29
2017-08-16T22:37:33.647Z,91.24
2017-08-16T22:40:03.005Z,91.42
2017-08-16T22:42:31.829Z,91.60
2017-08-16T22:45:00.376Z,91.74
2017-08-16T22:47:29.684Z,91.92
2017-08-16T22:49:58.586Z,92.23
2017-08-16T22:55:02.441Z,91.82
2017-08-16T22:57:30.725Z,91.92
2017-08-16T22:59:59.136Z,92.05
2017-08-16T23:02:27.713Z,92.29
2017-08-16T23:04:56.550Z,92.47
2017-08-16T23:07:26.552Z,92.74
2017-08-16T23:09:56.469Z,92.98
2017-08-16T23:12:25.440Z,92.85
2017-08-16T23:14:54.130Z,92.44
2017-08-16T23:17:24.078Z,92.17
2017-08-16T23:19:54.698Z,92.02
2017-08-16T23:22:25.297Z,91.82
2017-08-16T23:24:53.353Z,91.71
2017-08-16T23:27:24.690Z,92.03
2017-08-16T23:29:53.538Z,91.99
2017-08-16T23:32:22.877Z,92.32
2017-08-16T23:34:52.859Z,92.70
2017-08-16T23:37:21.698Z,92.79
2017-08-16T23:39:52.589Z,92.95
2017-08-16T23:42:21.553Z,93.09
2017-08-16T23:44:50.437Z,92.78
2017-08-16T23:47:19.482Z,93.00
2017-08-16T23:49:48.413Z,92.43
2017-08-16T23:52:17.207Z,92.40
2017-08-16T23:54:46.952Z,92.33
2017-08-16T23:57:16.514Z,92.36
2017-08-16T23:59:44.749Z,92.31
